createdAt,value
2018-10-21T00:02:16.638Z,16.47
2018-10-21T00:04:45.786Z,15.30
2018-10-21T00:07:15.633Z,17.77
2018-10-21T00:09:44.432Z,18.67
2018-10-21T00:12:13.215Z,14.77
2018-10-21T00:14:42.049Z,17.43
2018-10-21T00:17:11.704Z,15.37
2018-10-21T00:19:41.010Z,17.87
2018-10-21T00:22:09.843Z,19.27
2018-10-21T00:24:38.694Z,16.10
2018-10-21T00:27:08.680Z,16.27
2018-10-21T00:29:38.008Z,17.43
2018-10-21T00:32:06.875Z,16.50
2018-10-21T00:34:35.697Z,15.53
2018-10-21T00:37:05.451Z,16.27
2018-10-21T00:39:34.283Z,15.57
2018-10-21T00:42:03.139Z,17.50
2018-10-21T00:44:33.063Z,15.33
2018-10-21T00:47:02.312Z,16.20
2018-10-21T00:49:31.166Z,17.23
2018-10-21T00:52:00.056Z,18.70
2018-10-21T00:54:28.847Z,14.13
2018-10-21T00:56:57.989Z,20.00
2018-10-21T00:59:26.838Z,17.67
2018-10-21T01:01:55.734Z,15.70
2018-10-21T01:04:24.591Z,15.00
2018-10-21T01:06:53.445Z,15.67
2018-10-21T01:09:22.287Z,22.07
2018-10-21T01:11:51.550Z,16.47
2018-10-21T01:14:20.374Z,17.00
2018-10-21T01:16:49.171Z,16.53
2018-10-21T01:19:18.651Z,17.37
2018-10-21T01:21:47.471Z,20.40
2018-10-21T01:24:16.295Z,20.47
2018-10-21T01:26:45.111Z,15.90
2018-10-21T01:29:14.415Z,14.93
2018-10-21T01:31:43.232Z,16.27
2018-10-21T01:34:12.118Z,18.47
2018-10-21T01:36:41.317Z,18.03
2018-10-21T01:39:11.463Z,15.67
2018-10-21T01:41:40.431Z,15.53
2018-10-21T01:44:09.590Z,18.07
2018-10-21T01:46:38.472Z,17.60
2018-10-21T01:49:07.320Z,16.07
2018-10-21T01:51:36.492Z,19.93
2018-10-21T01:54:05.650Z,20.17
2018-10-21T01:56:34.595Z,19.60
2018-10-21T01:59:03.466Z,15.87
2018-10-21T02:01:32.357Z,14.97
2018-10-21T02:04:01.199Z,18.33
2018-10-21T02:06:29.994Z,19.50
2018-10-21T02:08:58.938Z,15.07
2018-10-21T02:11:28.751Z,20.27
2018-10-21T02:13:57.892Z,21.27
2018-10-21T02:16:26.765Z,16.57
2018-10-21T02:18:55.589Z,15.93
2018-10-21T02:21:24.394Z,15.40
2018-10-21T02:23:53.239Z,16.37
2018-10-21T02:26:22.112Z,13.30
2018-10-21T02:28:51.263Z,14.10
2018-10-21T02:31:20.105Z,17.33
2018-10-21T02:33:48.968Z,18.33
2018-10-21T02:36:18.301Z,13.27
2018-10-21T02:38:47.155Z,17.33
2018-10-21T02:41:29.460Z,14.13
2018-10-21T02:43:58.319Z,17.27
2018-10-21T02:46:27.434Z,17.50
2018-10-21T02:48:57.634Z,18.47
2018-10-21T02:51:26.532Z,18.07
2018-10-21T02:53:55.384Z,16.13
2018-10-21T02:56:24.202Z,15.17
2018-10-21T02:58:53.075Z,17.40
2018-10-21T03:01:21.927Z,18.07
2018-10-21T03:03:51.299Z,19.33
2018-10-21T03:06:21.058Z,14.53
2018-10-21T03:08:49.915Z,16.20
2018-10-21T03:11:18.761Z,18.97
2018-10-21T03:13:48.052Z,18.50
2018-10-21T03:16:16.915Z,15.70
2018-10-21T03:21:33.111Z,14.73
2018-10-21T03:24:01.954Z,15.10
2018-10-21T03:26:30.804Z,14.80
2018-10-21T03:28:59.658Z,18.50
2018-10-21T03:31:28.498Z,17.57
2018-10-21T03:33:57.537Z,19.30
2018-10-21T03:36:26.469Z,17.47
2018-10-21T03:38:55.321Z,17.70
2018-10-21T03:41:24.137Z,16.83
2018-10-21T03:43:53.388Z,16.20
2018-10-21T03:46:22.198Z,17.60
2018-10-21T03:48:51.068Z,16.60
2018-10-21T03:51:19.930Z,18.93
2018-10-21T03:53:48.788Z,16.87
2018-10-21T03:56:17.680Z,17.50
2018-10-21T03:58:46.855Z,16.93
2018-10-21T04:01:15.794Z,17.27
2018-10-21T04:03:44.686Z,17.67
2018-10-21T04:06:14.035Z,15.53
2018-10-21T04:08:43.427Z,19.37
2018-10-21T04:11:12.326Z,20.23
2018-10-21T04:13:41.191Z,20.63
2018-10-21T04:16:10.145Z,18.80
2018-10-21T04:18:39.951Z,15.37
2018-10-21T04:21:08.774Z,18.17
2018-10-21T04:23:37.647Z,19.43
2018-10-21T04:26:06.582Z,17.00
2018-10-21T04:28:35.475Z,17.67
2018-10-21T04:31:05.213Z,18.87
2018-10-21T04:33:40.982Z,18.80
2018-10-21T04:36:11.745Z,17.57
2018-10-21T04:38:52.037Z,19.60
2018-10-21T04:41:20.991Z,16.47
2018-10-21T04:43:49.847Z,17.67
2018-10-21T04:46:19.040Z,17.37
2018-10-21T04:48:47.888Z,19.60
2018-10-21T04:51:16.964Z,17.57
2018-10-21T04:53:45.855Z,20.80
2018-10-21T04:56:14.995Z,23.00
2018-10-21T04:58:43.852Z,19.57
2018-10-21T05:01:14.663Z,18.10
2018-10-21T05:03:43.519Z,17.67
2018-10-21T05:06:12.361Z,17.43
2018-10-21T05:08:41.244Z,18.43
2018-10-21T05:11:10.394Z,15.70
2018-10-21T05:13:39.250Z,17.20
2018-10-21T05:16:08.171Z,17.27
2018-10-21T05:18:36.951Z,17.70
2018-10-21T05:21:06.390Z,14.50
2018-10-21T05:23:35.259Z,13.73
2018-10-21T05:26:04.244Z,19.20
2018-10-21T05:28:33.740Z,18.43
2018-10-21T05:31:03.063Z,16.63
2018-10-21T05:33:31.918Z,16.20
2018-10-21T05:36:00.854Z,17.47
2018-10-21T05:38:30.342Z,15.33
2018-10-21T05:40:59.228Z,19.40
2018-10-21T05:43:28.113Z,17.47
2018-10-21T05:45:56.936Z,15.97
2018-10-21T05:48:26.244Z,16.87
2018-10-21T05:50:55.212Z,17.23
2018-10-21T05:53:24.724Z,15.03
2018-10-21T05:55:53.715Z,16.60
2018-10-21T05:58:22.953Z,17.13
2018-10-21T06:00:51.783Z,17.87
2018-10-21T06:03:32.215Z,18.17
2018-10-21T06:06:01.049Z,14.93
2018-10-21T06:08:30.903Z,16.10
2018-10-21T06:11:00.055Z,18.43
2018-10-21T06:13:28.950Z,18.80
2018-10-21T06:15:57.896Z,21.40
2018-10-21T06:18:27.722Z,15.07
2018-10-21T06:21:02.251Z,21.20
2018-10-21T06:23:31.495Z,16.40
2018-10-21T06:26:00.359Z,23.97
2018-10-21T06:28:29.228Z,18.60
2018-10-21T06:30:59.910Z,17.43
2018-10-21T06:33:29.083Z,18.70
2018-10-21T06:35:58.159Z,15.67
2018-10-21T06:38:27.015Z,20.10
2018-10-21T06:40:55.868Z,19.00
2018-10-21T06:43:25.018Z,20.33
2018-10-21T06:45:53.946Z,18.27
2018-10-21T06:48:22.837Z,17.20
2018-10-21T06:50:51.693Z,19.93
2018-10-21T06:53:20.514Z,23.00
2018-10-21T06:55:49.346Z,23.17
2018-10-21T06:58:19.574Z,20.73
2018-10-21T07:00:48.474Z,22.37
2018-10-21T07:03:17.367Z,17.30
2018-10-21T07:06:24.887Z,21.30
2018-10-21T07:08:55.034Z,20.03
2018-10-21T07:11:23.916Z,20.27
2018-10-21T07:13:54.810Z,19.53
2018-10-21T07:16:25.131Z,16.73
2018-10-21T07:18:54.264Z,20.70
2018-10-21T07:21:23.071Z,20.30
2018-10-21T07:23:51.906Z,23.13
2018-10-21T07:26:20.707Z,23.20
2018-10-21T07:28:50.326Z,21.37
2018-10-21T07:31:19.615Z,22.47
2018-10-21T07:33:48.458Z,18.70
2018-10-21T07:36:17.296Z,21.77
2018-10-21T07:38:47.921Z,21.77
2018-10-21T07:41:17.302Z,25.57
2018-10-21T07:43:48.966Z,28.13
2018-10-21T07:46:19.670Z,29.30
2018-10-21T07:48:49.826Z,27.90
2018-10-21T07:51:18.750Z,29.20
2018-10-21T07:53:47.596Z,25.33
2018-10-21T07:56:16.419Z,29.70
2018-10-21T07:58:45.330Z,31.73
2018-10-21T08:01:14.197Z,29.63
2018-10-21T08:03:43.589Z,26.87
2018-10-21T08:06:35.753Z,27.03
2018-10-21T08:09:07.655Z,29.53
2018-10-21T08:11:38.315Z,27.73
2018-10-21T08:14:08.299Z,29.80
2018-10-21T08:16:37.192Z,30.60
2018-10-21T08:19:06.198Z,35.13
2018-10-21T08:21:35.485Z,31.77
2018-10-21T08:24:06.920Z,32.37
2018-10-21T08:26:38.362Z,31.13
2018-10-21T08:29:09.189Z,33.57
2018-10-21T08:31:39.243Z,34.80
2018-10-21T08:34:08.097Z,31.53
2018-10-21T08:36:36.954Z,30.77
2018-10-21T08:39:08.007Z,34.27
2018-10-21T08:41:36.964Z,36.57
2018-10-21T08:44:09.565Z,42.87
2018-10-21T08:46:39.446Z,45.87
2018-10-21T08:49:17.019Z,38.63
2018-10-21T08:51:52.050Z,41.50
2018-10-21T08:54:23.688Z,39.80
2018-10-21T08:56:52.612Z,36.87
2018-10-21T08:59:21.526Z,41.07
2018-10-21T09:01:50.778Z,44.70
2018-10-21T09:04:19.657Z,40.40
2018-10-21T09:06:48.527Z,43.30
2018-10-21T09:09:17.380Z,37.33
2018-10-21T09:11:46.363Z,43.07
2018-10-21T09:14:15.195Z,41.17
2018-10-21T09:16:46.404Z,28.63
2018-10-21T09:19:18.275Z,32.80
2018-10-21T09:21:47.287Z,30.67
2018-10-21T09:24:17.098Z,28.63
2018-10-21T09:26:52.811Z,27.40
2018-10-21T09:29:23.454Z,27.50
2018-10-21T09:31:54.048Z,21.70
2018-10-21T09:34:22.911Z,26.17
2018-10-21T09:36:52.379Z,29.43
2018-10-21T09:39:21.597Z,28.87
2018-10-21T09:41:52.453Z,30.53
2018-10-21T09:44:21.323Z,20.83
2018-10-21T09:46:50.616Z,19.97
2018-10-21T09:49:20.683Z,19.37
2018-10-21T09:51:49.510Z,19.17
2018-10-21T09:54:20.480Z,21.70
2018-10-21T09:56:50.261Z,14.87
2018-10-21T09:59:22.595Z,19.03
2018-10-21T10:01:59.313Z,17.73
2018-10-21T10:04:29.461Z,13.57
2018-10-21T10:06:58.371Z,12.53
2018-10-21T10:09:27.916Z,15.30
2018-10-21T10:11:57.598Z,16.07
2018-10-21T10:14:26.442Z,18.17
2018-10-21T10:16:55.704Z,20.00
2018-10-21T10:19:24.531Z,23.80
2018-10-21T10:21:53.473Z,23.57
2018-10-21T10:24:25.345Z,20.63
2018-10-21T10:26:54.826Z,19.57
2018-10-21T10:29:29.897Z,19.37
2018-10-21T10:31:58.783Z,15.37
2018-10-21T10:34:27.610Z,18.13
2018-10-21T10:36:57.152Z,18.70
2018-10-21T10:39:26.039Z,20.20
2018-10-21T10:41:54.959Z,20.20
2018-10-21T10:44:23.756Z,14.93
2018-10-21T10:46:55.289Z,16.30
2018-10-21T10:49:24.160Z,15.97
2018-10-21T10:51:53.788Z,8.13
2018-10-21T10:54:22.974Z,12.70
2018-10-21T10:56:51.929Z,7.43
2018-10-21T10:59:21.327Z,6.47
2018-10-21T11:01:50.180Z,8.17
2018-10-21T11:04:20.185Z,11.20
2018-10-21T11:06:49.149Z,11.20
2018-10-21T11:09:18.278Z,7.03
2018-10-21T11:11:47.740Z,7.73
2018-10-21T11:14:23.327Z,6.77
2018-10-21T11:16:53.944Z,8.23
2018-10-21T11:19:25.241Z,7.77
2018-10-21T11:21:56.081Z,6.93
2018-10-21T11:24:40.399Z,6.13
2018-10-21T11:27:09.390Z,8.87
2018-10-21T11:29:38.349Z,5.27
2018-10-21T11:32:08.005Z,6.87
2018-10-21T11:34:37.253Z,6.47
2018-10-21T11:37:06.189Z,6.80
2018-10-21T11:39:35.048Z,5.17
2018-10-21T11:42:05.385Z,6.40
2018-10-21T11:44:34.223Z,8.97
2018-10-21T11:47:03.097Z,9.53
2018-10-21T11:49:31.939Z,5.87
2018-10-21T11:52:01.807Z,6.80
2018-10-21T11:54:30.708Z,6.97
2018-10-21T11:56:59.527Z,8.00
2018-10-21T11:59:29.524Z,5.77
2018-10-21T12:01:59.417Z,7.70
2018-10-21T12:04:28.300Z,7.57
2018-10-21T12:06:59.890Z,8.37
2018-10-21T12:09:29.664Z,5.87
2018-10-21T12:11:59.103Z,7.73
2018-10-21T12:14:27.933Z,7.50
2018-10-21T12:16:57.372Z,5.90
2018-10-21T12:19:26.621Z,7.70
2018-10-21T12:21:56.942Z,7.40
2018-10-21T12:24:28.390Z,7.57
2018-10-21T12:26:59.578Z,8.47
2018-10-21T12:29:31.185Z,14.17
2018-10-21T12:32:00.918Z,8.63
2018-10-21T12:34:30.251Z,6.00
2018-10-21T12:36:59.158Z,6.63
2018-10-21T12:39:29.866Z,7.60
2018-10-21T12:42:00.849Z,4.43
2018-10-21T12:44:29.731Z,6.83
2018-10-21T12:46:59.557Z,7.80
2018-10-21T12:49:29.655Z,9.93
2018-10-21T12:51:58.666Z,9.13
2018-10-21T12:54:27.628Z,7.33
2018-10-21T12:56:58.856Z,6.70
2018-10-21T12:59:27.712Z,7.40
2018-10-21T13:01:57.495Z,6.77
2018-10-21T13:04:27.451Z,11.50
2018-10-21T13:06:56.975Z,8.27
2018-10-21T13:09:26.961Z,8.20
2018-10-21T13:11:57.591Z,8.23
2018-10-21T13:14:27.758Z,6.30
2018-10-21T13:16:56.730Z,6.23
2018-10-21T13:19:26.419Z,14.17
2018-10-21T13:21:57.228Z,4.10
2018-10-21T13:24:26.031Z,5.77
2018-10-21T13:26:55.686Z,7.33
2018-10-21T13:29:26.653Z,6.77
2018-10-21T13:31:57.258Z,7.43
2018-10-21T13:34:28.459Z,6.90
2018-10-21T13:36:57.740Z,5.10
2018-10-21T13:39:28.074Z,5.77
2018-10-21T13:41:57.854Z,5.80
2018-10-21T13:44:26.752Z,6.03
2018-10-21T13:46:56.526Z,6.87
2018-10-21T13:49:25.390Z,4.43
2018-10-21T13:51:55.123Z,7.27
2018-10-21T13:54:24.805Z,7.07
2018-10-21T13:56:56.450Z,11.20
2018-10-21T13:59:26.257Z,5.70
2018-10-21T14:01:55.407Z,6.80
2018-10-21T14:04:25.929Z,9.60
2018-10-21T14:06:55.748Z,6.37
2018-10-21T14:09:24.564Z,7.43
2018-10-21T14:11:53.539Z,4.07
2018-10-21T14:14:26.035Z,4.97
2018-10-21T14:16:57.212Z,7.13
2018-10-21T14:19:27.062Z,6.43
2018-10-21T14:21:57.363Z,5.47
2018-10-21T14:24:27.500Z,8.20
2018-10-21T14:26:56.340Z,6.97
2018-10-21T14:29:25.179Z,6.73
2018-10-21T14:31:55.829Z,5.00
2018-10-21T14:34:26.441Z,6.93
2018-10-21T14:36:58.391Z,5.27
2018-10-21T14:39:28.570Z,6.63
2018-10-21T14:41:57.440Z,4.77
2018-10-21T14:44:27.632Z,5.67
2018-10-21T14:46:56.923Z,7.63
2018-10-21T14:49:25.859Z,4.93
2018-10-21T14:51:54.686Z,4.87
2018-10-21T14:54:24.335Z,6.17
2018-10-21T14:56:56.286Z,6.10
2018-10-21T14:59:25.699Z,6.80
2018-10-21T15:01:55.815Z,6.00
2018-10-21T15:04:25.045Z,7.50
2018-10-21T15:07:01.451Z,4.73
2018-10-21T15:09:30.418Z,6.33
2018-10-21T15:12:04.328Z,6.10
2018-10-21T15:14:33.823Z,5.40
2018-10-21T15:17:05.179Z,5.97
2018-10-21T15:19:35.339Z,4.70
2018-10-21T15:22:05.469Z,7.63
2018-10-21T15:24:35.726Z,6.37
2018-10-21T15:27:05.330Z,4.60
2018-10-21T15:29:34.186Z,7.40
2018-10-21T15:32:03.578Z,5.63
2018-10-21T15:34:32.852Z,4.53
2018-10-21T15:37:01.662Z,4.93
2018-10-21T15:39:30.551Z,5.10
2018-10-21T15:41:59.367Z,5.13
2018-10-21T15:44:31.815Z,4.07
2018-10-21T15:47:01.806Z,7.27
2018-10-21T15:49:33.124Z,5.00
2018-10-21T15:52:02.919Z,6.70
2018-10-21T15:54:32.804Z,6.27
2018-10-21T15:57:01.594Z,3.97
2018-10-21T16:00:01.303Z,5.50
2018-10-21T16:02:32.983Z,11.87
2018-10-21T16:05:10.453Z,6.73
2018-10-21T16:07:43.689Z,5.87
2018-10-21T16:10:12.646Z,5.27
2018-10-21T16:12:41.525Z,4.90
2018-10-21T16:15:15.110Z,6.07
2018-10-21T16:18:07.411Z,5.37
2018-10-21T16:20:41.975Z,6.53
2018-10-21T16:27:08.185Z,5.33
2018-10-21T16:29:43.560Z,7.73
2018-10-21T16:32:15.415Z,4.80
2018-10-21T16:34:58.436Z,4.40
2018-10-21T16:37:57.584Z,5.27
2018-10-21T16:40:28.178Z,5.77
2018-10-21T16:42:58.278Z,5.80
2018-10-21T16:45:28.797Z,5.87
2018-10-21T16:47:59.797Z,5.57
2018-10-21T16:50:30.532Z,5.57
2018-10-21T16:53:03.092Z,6.73
2018-10-21T16:55:32.802Z,6.60
2018-10-21T16:58:04.652Z,6.80
2018-10-21T17:00:35.497Z,7.97
2018-10-21T17:03:05.441Z,5.97
2018-10-21T17:05:34.305Z,7.23
2018-10-21T17:08:05.246Z,8.10
2018-10-21T17:10:35.638Z,5.57
2018-10-21T17:13:12.924Z,5.70
2018-10-21T17:15:47.732Z,6.90
2018-10-21T17:18:20.694Z,7.73
2018-10-21T17:20:55.444Z,7.03
2018-10-21T17:23:26.455Z,9.13
2018-10-21T17:25:57.296Z,9.43
2018-10-21T17:28:28.520Z,6.83
2018-10-21T17:31:03.000Z,6.27
2018-10-21T17:33:35.342Z,5.13
2018-10-21T17:36:05.026Z,8.50
2018-10-21T17:38:37.380Z,7.57
2018-10-21T17:41:12.331Z,5.80
2018-10-21T17:43:43.391Z,10.17
2018-10-21T17:46:15.464Z,7.27
2018-10-21T17:48:44.303Z,8.27
2018-10-21T17:51:15.499Z,9.60
2018-10-21T17:53:44.331Z,7.23
2018-10-21T17:56:13.175Z,9.47
2018-10-21T17:58:42.032Z,9.50
2018-10-21T18:01:13.276Z,9.17
2018-10-21T18:03:43.372Z,9.93
2018-10-21T18:06:12.735Z,12.27
2018-10-21T18:08:42.618Z,10.93
2018-10-21T18:11:14.436Z,14.80
2018-10-21T18:13:43.619Z,10.30
2018-10-21T18:16:13.517Z,16.20
2018-10-21T18:18:44.674Z,15.53
2018-10-21T18:21:15.722Z,17.43
2018-10-21T18:23:45.778Z,18.27
2018-10-21T18:26:14.676Z,23.57
2018-10-21T18:28:44.903Z,19.20
2018-10-21T18:31:13.893Z,23.27
2018-10-21T18:33:43.046Z,26.43
2018-10-21T18:36:11.871Z,22.53
2018-10-21T18:38:45.181Z,23.57
2018-10-21T18:41:14.782Z,21.63
2018-10-21T18:43:44.088Z,21.43
2018-10-21T18:46:14.767Z,18.77
2018-10-21T18:48:45.247Z,19.53
2018-10-21T18:51:15.121Z,19.93
2018-10-21T18:53:45.148Z,21.47
2018-10-21T18:56:14.000Z,19.67
2018-10-21T18:58:42.864Z,18.67
2018-10-21T19:01:13.028Z,18.67
2018-10-21T19:03:43.807Z,17.27
2018-10-21T19:06:14.143Z,25.67
2018-10-21T19:08:43.476Z,24.27
2018-10-21T19:11:14.581Z,23.87
2018-10-21T19:13:45.437Z,18.00
2018-10-21T19:16:15.364Z,31.27
2018-10-21T19:18:46.583Z,38.80
2018-10-21T19:21:16.233Z,35.90
2018-10-21T19:23:45.104Z,35.87
2018-10-21T19:26:13.970Z,31.97
2018-10-21T19:28:47.680Z,32.17
2018-10-21T19:31:17.268Z,31.10
2018-10-21T19:33:49.066Z,30.87
2018-10-21T19:36:18.845Z,27.80
2018-10-21T19:38:48.298Z,27.27
2018-10-21T19:41:18.102Z,27.93
2018-10-21T19:43:49.398Z,24.30
2018-10-21T19:46:18.243Z,24.67
2018-10-21T19:48:49.074Z,24.70
2018-10-21T19:51:17.963Z,20.07
2018-10-21T19:53:49.868Z,17.30
2018-10-21T19:56:20.200Z,18.50
2018-10-21T19:58:56.450Z,17.43
2018-10-21T20:01:26.031Z,20.30
2018-10-21T20:03:57.057Z,20.97
2018-10-21T20:06:29.083Z,16.20
2018-10-21T20:09:00.518Z,16.47
2018-10-21T20:11:31.335Z,16.30
2018-10-21T20:14:01.878Z,19.80
2018-10-21T20:16:31.492Z,16.80
2018-10-21T20:19:00.394Z,16.30
2018-10-21T20:21:31.653Z,15.73
2018-10-21T20:24:01.435Z,19.73
2018-10-21T20:26:30.282Z,18.17
2018-10-21T20:29:00.699Z,22.23
2018-10-21T20:31:29.591Z,20.77
2018-10-21T20:34:04.569Z,22.43
2018-10-21T20:36:34.134Z,18.37
2018-10-21T20:39:12.548Z,18.40
2018-10-21T20:41:44.207Z,22.30
2018-10-21T20:44:14.687Z,19.77
2018-10-21T20:46:44.355Z,20.63
2018-10-21T20:49:15.555Z,18.60
2018-10-21T20:51:44.910Z,18.17
2018-10-21T20:54:15.018Z,22.20
2018-10-21T20:56:43.864Z,17.80
2018-10-21T20:59:12.702Z,16.17
2018-10-21T21:01:49.623Z,17.77
2018-10-21T21:04:19.463Z,14.80
2018-10-21T21:06:48.912Z,16.20
2018-10-21T21:09:17.724Z,16.93
2018-10-21T21:11:47.089Z,18.53
2018-10-21T21:14:16.555Z,17.80
2018-10-21T21:16:45.388Z,15.10
2018-10-21T21:19:14.980Z,13.33
2018-10-21T21:21:43.844Z,13.90
2018-10-21T21:24:12.713Z,14.03
2018-10-21T21:26:44.048Z,13.27
2018-10-21T21:29:13.765Z,13.90
2018-10-21T21:31:42.860Z,15.10
2018-10-21T21:34:13.519Z,11.53
2018-10-21T21:36:43.924Z,12.40
2018-10-21T21:39:14.486Z,13.27
2018-10-21T21:41:45.483Z,11.07
2018-10-21T21:44:15.456Z,16.07
2018-10-21T21:46:45.089Z,11.27
2018-10-21T21:49:14.578Z,11.20
2018-10-21T21:51:43.428Z,10.53
2018-10-21T21:54:13.688Z,8.73
2018-10-21T21:56:43.246Z,12.60
2018-10-21T21:59:12.079Z,10.37
2018-10-21T22:01:41.926Z,14.47
2018-10-21T22:04:11.122Z,7.87
2018-10-21T22:06:40.754Z,14.17
2018-10-21T22:09:13.761Z,8.63
2018-10-21T22:11:44.653Z,8.03
2018-10-21T22:14:14.439Z,11.47
2018-10-21T22:16:43.262Z,9.90
2018-10-21T22:19:12.601Z,7.30
2018-10-21T22:21:41.482Z,12.47
2018-10-21T22:24:12.343Z,7.27
2018-10-21T22:26:41.239Z,9.37
2018-10-21T22:29:11.796Z,7.00
2018-10-21T22:31:41.418Z,9.87
2018-10-21T22:34:13.819Z,8.90
2018-10-21T22:36:42.623Z,7.53
2018-10-21T22:39:11.452Z,7.20
2018-10-21T22:41:40.317Z,8.13
2018-10-21T22:44:09.147Z,12.03
2018-10-21T22:46:38.005Z,11.33
2018-10-21T22:49:07.264Z,8.77
2018-10-21T22:51:36.176Z,8.60
2018-10-21T22:54:05.165Z,11.80
2018-10-21T22:56:34.420Z,14.73
2018-10-21T22:59:03.856Z,8.77
2018-10-21T23:01:32.737Z,9.83
2018-10-21T23:04:02.094Z,8.40
2018-10-21T23:06:31.524Z,8.50
2018-10-21T23:09:00.396Z,8.07
2018-10-21T23:11:29.783Z,9.40
2018-10-21T23:13:58.639Z,7.57
2018-10-21T23:16:27.470Z,12.20
2018-10-21T23:19:10.987Z,10.40
2018-10-21T23:21:39.873Z,12.33
2018-10-21T23:24:09.550Z,10.87
2018-10-21T23:31:24.103Z,8.63
2018-10-21T23:33:54.689Z,10.83
2018-10-21T23:36:23.548Z,10.40
2018-10-21T23:38:52.343Z,7.90
2018-10-21T23:41:21.534Z,10.43
2018-10-21T23:43:51.103Z,12.13
2018-10-21T23:46:19.959Z,9.67
2018-10-21T23:48:48.898Z,10.17
2018-10-21T23:51:18.082Z,9.33
2018-10-21T23:53:46.937Z,9.93
2018-10-21T23:56:15.851Z,11.53
2018-10-21T23:58:44.774Z,14.17
